Time;durP1;ratioP1;P1;durP2;ratioP2;P2;SDS_P1;SDS_P2;PMS_P1;PMS_P2;Temp;Humidity;BMP_temperature;BMP_pressure;BME280_temperature;BME280_humidity;BME280_pressure;Samples;Min_cycle;Max_cycle;Signal;HPM_P1;HPM_P2
2021/04/21 00:04:15;;;;;;;8.85;7.00;;;;;;;10.01;54.44;97524.19;10431184;28;20045;-76
2021/04/21 00:09:35;;;;;;;10.48;6.90;;;;;;;9.86;54.40;97530.88;10459324;28;20044;-75
2021/04/21 00:14:56;;;;;;;11.65;7.25;;;;;;;9.76;54.93;97527.44;10445222;28;20041;-75
2021/04/21 00:20:17;;;;;;;9.48;6.90;;;;;;;9.66;55.14;97523.97;10444615;28;20045;-74
2021/04/21 00:25:38;;;;;;;10.32;7.00;;;;;;;9.53;55.50;97527.97;10444974;28;20045;-74
2021/04/21 00:31:01;;;;;;;8.88;6.60;;;;;;;9.44;55.51;97526.69;10458124;28;20045;-75
2021/04/21 00:36:24;;;;;;;10.68;7.38;;;;;;;9.34;56.20;97528.78;10459069;28;20052;-74
2021/04/21 00:42:34;;;;;;;9.20;7.38;;;;;;;9.27;56.86;97529.69;10458440;28;20052;-74
2021/04/21 00:48:31;;;;;;;9.85;7.07;;;;;;;9.16;56.75;97519.16;10458445;28;20406;-75
2021/04/21 00:54:17;;;;;;;10.43;7.05;;;;;;;9.04;56.43;97518.31;10458412;28;20503;-74
2021/04/21 01:00:04;;;;;;;9.40;7.40;;;;;;;8.95;57.47;97513.50;10457724;28;20037;-76
2021/04/21 01:05:40;;;;;;;8.88;7.10;;;;;;;8.85;57.06;97514.25;10458461;28;20048;-74
2021/04/21 01:11:19;;;;;;;10.23;7.80;;;;;;;8.81;57.55;97511.19;10443744;28;20044;-75
2021/04/21 01:16:42;;;;;;;10.57;7.53;;;;;;;8.73;57.90;97499.50;10459631;28;20503;-76
2021/04/21 01:22:14;;;;;;;10.93;7.20;;;;;;;8.70;58.00;97503.47;10416171;28;20494;-75
2021/04/21 01:27:43;;;;;;;9.55;7.57;;;;;;;8.67;58.20;97499.06;10457801;28;20073;-74
2021/04/21 01:33:09;;;;;;;10.43;7.90;;;;;;;8.60;58.68;97491.63;10457419;28;20048;-75
2021/04/21 01:38:30;;;;;;;10.82;7.90;;;;;;;8.58;59.03;97494.25;10443464;28;20471;-74
2021/04/21 01:43:57;;;;;;;11.88;7.90;;;;;;;8.54;59.12;97497.47;10463947;28;20375;-73
2021/04/21 01:49:21;;;;;;;11.70;7.88;;;;;;;8.48;59.31;97490.75;10464298;28;20048;-75
2021/04/21 01:54:41;;;;;;;12.48;8.70;;;;;;;8.45;60.49;97494.69;10464339;28;20045;-75
2021/04/21 02:00:09;;;;;;;11.50;8.65;;;;;;;8.44;59.98;97488.41;10449350;28;20387;-75
2021/04/21 02:06:01;;;;;;;14.18;9.55;;;;;;;8.45;60.13;97497.47;10463529;28;20391;-74
2021/04/21 02:11:24;;;;;;;13.38;8.98;;;;;;;8.45;60.45;97494.69;10459485;28;20061;-74
2021/04/21 02:18:00;;;;;;;13.82;9.02;;;;;;;8.39;60.44;97494.25;10450117;28;20091;-74
2021/04/21 02:23:39;;;;;;;10.88;8.20;;;;;;;8.32;60.75;97499.38;10438413;28;20049;-76
2021/04/21 02:29:32;;;;;;;14.45;9.27;;;;;;;8.24;60.53;97493.22;10463284;28;20044;-75
2021/04/21 02:34:59;;;;;;;11.23;8.23;;;;;;;8.22;61.17;97495.88;10463922;28;20041;-74
2021/04/21 02:40:50;;;;;;;12.77;8.70;;;;;;;8.16;61.70;97491.91;10462198;28;20049;-74
2021/04/21 02:46:52;;;;;;;12.48;9.13;;;;;;;8.12;61.43;97502.75;10465375;28;20052;-76
2021/04/21 02:52:38;;;;;;;12.57;9.68;;;;;;;8.08;61.64;97505.22;10462171;28;20048;-74
2021/04/21 02:58:12;;;;;;;12.57;9.48;;;;;;;7.98;61.69;97499.63;10461938;28;20098;-74
2021/04/21 03:04:15;;;;;;;14.57;9.70;;;;;;;7.92;61.95;97485.31;10461598;28;20102;-74
2021/04/21 03:09:45;;;;;;;13.88;10.18;;;;;;;7.88;62.18;97482.22;10466713;28;20048;-74
2021/04/21 03:15:08;;;;;;;14.50;10.15;;;;;;;7.87;62.32;97483.53;10433428;28;20063;-73
2021/04/21 03:20:29;;;;;;;13.00;9.60;;;;;;;7.77;62.42;97474.47;10433267;28;20535;-74
2021/04/21 03:25:51;;;;;;;13.85;9.82;;;;;;;7.75;63.02;97475.78;10432301;28;20044;-75
2021/04/21 03:31:12;;;;;;;15.05;9.85;;;;;;;7.75;62.56;97475.06;10431826;28;20119;-74
2021/04/21 03:36:33;;;;;;;15.80;10.88;;;;;;;7.70;63.06;97474.00;10459654;28;20045;-76
2021/04/21 03:41:54;;;;;;;14.18;10.30;;;;;;;7.68;63.22;97478.69;10440427;28;20041;-75
2021/04/21 03:47:15;;;;;;;14.77;10.77;;;;;;;7.62;63.26;97472.66;10459309;28;20102;-75
2021/04/21 03:52:40;;;;;;;16.85;10.68;;;;;;;7.56;63.36;97484.06;10458930;28;20045;-77
2021/04/21 03:58:10;;;;;;;15.93;11.10;;;;;;;7.52;63.84;97486.53;10431340;28;20044;-75
2021/04/21 04:03:32;;;;;;;16.48;11.32;;;;;;;7.49;63.97;97496.03;10457491;28;20067;-76
2021/04/21 04:09:00;;;;;;;14.25;10.77;;;;;;;7.52;64.30;97494.13;10417396;28;20048;-75
2021/04/21 04:14:27;;;;;;;13.85;10.70;;;;;;;7.58;64.97;97491.81;10459196;28;20063;-75
2021/04/21 04:19:48;;;;;;;11.77;9.75;;;;;;;7.64;64.55;97495.06;10431270;28;20044;-76
2021/04/21 04:25:09;;;;;;;13.88;10.35;;;;;;;7.67;64.50;97494.63;10430936;28;20048;-74
2021/04/21 04:30:30;;;;;;;12.27;9.70;;;;;;;7.75;64.54;97495.22;10431436;28;20060;-75
2021/04/21 04:35:51;;;;;;;13.77;9.90;;;;;;;7.89;65.22;97506.66;10417356;28;20041;-75
2021/04/21 04:41:12;;;;;;;14.15;10.07;;;;;;;8.09;64.44;97504.63;10430033;28;20102;-77
2021/04/21 04:46:37;;;;;;;13.50;10.23;;;;;;;8.39;64.71;97508.91;10430159;28;20484;-75
2021/04/21 04:51:58;;;;;;;15.68;10.20;;;;;;;8.67;64.00;97504.63;10403035;28;20041;-77
2021/04/21 04:57:19;;;;;;;16.88;12.60;;;;;;;8.95;63.83;97500.31;10457119;28;20052;-75
2021/04/21 05:02:54;;;;;;;15.10;11.65;;;;;;;9.26;63.80;97513.56;10429491;28;20053;-73
2021/04/21 05:08:18;;;;;;;14.85;11.20;;;;;;;9.59;63.31;97511.66;10431883;28;20049;-76
2021/04/21 05:13:49;;;;;;;13.93;9.80;;;;;;;10.22;62.78;97518.63;10416603;28;20115;-74
2021/04/21 05:19:09;;;;;;;11.90;8.90;;;;;;;11.55;60.71;97519.22;10464809;28;20060;-75
2021/04/21 05:25:05;;;;;;;10.07;8.70;;;;;;;15.77;61.95;97524.97;10466690;28;20067;-73
2021/04/21 05:31:09;;;;;;;10.68;8.18;;;;;;;19.71;52.69;97526.50;10448942;28;20071;-76
2021/04/21 05:37:00;;;;;;;;;;;;;;;22.91;46.10;97520.06;10448260;28;20480;-75
2021/04/21 05:42:31;;;;;;;11.70;6.90;;;;;;;26.42;38.41;97533.16;10475609;28;20023;-77
2021/04/21 05:48:32;;;;;;;13.57;6.57;;;;;;;28.97;35.04;97532.34;10461359;28;20408;-76
2021/04/21 05:54:16;;;;;;;10.05;6.72;;;;;;;30.96;25.90;97529.16;10456060;28;20182;-76
2021/04/21 06:00:16;;;;;;;8.07;6.30;;;;;;;31.52;23.99;97546.91;10446989;28;20048;-76
2021/04/21 06:05:36;;;;;;;7.15;5.88;;;;;;;34.71;20.17;97544.00;10446472;28;20051;-77
2021/04/21 06:10:57;;;;;;;6.30;5.50;;;;;;;35.83;17.21;97548.94;10474752;28;20426;-76
2021/04/21 06:16:19;;;;;;;6.90;5.28;;;;;;;37.31;15.24;97530.09;10432611;28;20484;-77
2021/04/21 06:21:40;;;;;;;7.60;5.88;;;;;;;38.85;13.38;97537.59;10432633;28;20118;-77
2021/04/21 06:27:08;;;;;;;8.57;5.40;;;;;;;39.41;12.40;97536.25;10417835;28;20526;-78
2021/04/21 06:32:28;;;;;;;5.60;5.07;;;;;;;41.35;11.16;97540.22;10459315;28;20040;-77
2021/04/21 06:37:49;;;;;;;7.22;5.47;;;;;;;41.19;9.59;97542.56;10431563;28;20045;-79
2021/04/21 06:43:09;;;;;;;7.90;6.75;;;;;;;36.94;11.65;97537.41;10431623;28;20382;-77
2021/04/21 06:48:37;;;;;;;9.45;6.35;;;;;;;34.83;13.83;97537.09;10459177;28;20041;-80
2021/04/21 06:53:59;;;;;;;7.05;6.10;;;;;;;33.86;14.60;97536.38;10417776;28;20041;-79
2021/04/21 06:59:19;;;;;;;7.30;6.22;;;;;;;33.92;15.07;97543.50;10458706;28;20048;-80
2021/04/21 07:04:40;;;;;;;8.70;6.40;;;;;;;35.10;14.30;97539.88;10417143;28;20045;-79
2021/04/21 07:10:00;;;;;;;9.70;6.75;;;;;;;36.76;13.38;97544.66;10403044;28;20415;-77
2021/04/21 07:15:21;;;;;;;;;;;;;;;37.71;12.48;97542.16;10458307;28;20057;-79
2021/04/21 07:20:41;;;;;;;8.35;6.93;;;;;;;38.70;11.55;97539.78;10443925;28;20342;-78
2021/04/21 07:26:02;;;;;;;10.65;6.63;;;;;;;40.22;10.57;97545.16;10429897;28;20442;-79
2021/04/21 07:31:22;;;;;;;9.48;7.22;;;;;;;40.93;10.17;97544.13;10429544;28;20067;-75
2021/04/21 07:36:47;;;;;;;7.50;6.53;;;;;;;41.88;9.80;97543.56;10442976;28;20071;-76
2021/04/21 07:42:16;;;;;;;9.68;6.72;;;;;;;43.83;8.74;97544.09;10415825;28;20099;-77
2021/04/21 07:47:41;;;;;;;12.27;6.30;;;;;;;44.78;8.10;97539.47;10429991;28;20037;-73
2021/04/21 07:53:02;;;;;;;6.80;5.63;;;;;;;45.28;7.49;97540.16;10429434;28;20091;-77
2021/04/21 07:58:23;;;;;;;;;;;;;;;45.82;7.61;97537.50;10456920;28;20396;-73
2021/04/21 08:03:43;;;;;;;;;;;;;;;46.19;7.01;97541.22;10470589;28;19921;-73
2021/04/21 08:09:04;;;;;;;8.32;6.20;;;;;;;46.33;7.11;97539.34;10456137;28;19928;-77
2021/04/21 08:14:50;;;;;;;7.75;5.70;;;;;;;46.90;6.53;97535.44;10414613;28;20094;-75
2021/04/21 08:20:11;;;;;;;6.90;5.75;;;;;;;46.73;6.80;97539.03;10416396;28;20128;-79
2021/04/21 08:25:32;;;;;;;8.10;5.90;;;;;;;42.94;7.57;97539.78;10426251;28;20044;-79
2021/04/21 08:30:59;;;;;;;9.10;6.43;;;;;;;35.80;10.90;97533.06;10449504;28;20554;-80
2021/04/21 08:36:21;;;;;;;8.60;6.45;;;;;;;33.06;13.51;97533.50;10451077;28;20040;-80
2021/04/21 08:41:44;;;;;;;8.00;5.90;;;;;;;38.96;12.63;97537.06;10437788;28;20045;-79
2021/04/21 08:47:04;;;;;;;8.82;5.72;;;;;;;44.07;9.09;97547.53;10411172;28;20086;-79
2021/04/21 08:52:26;;;;;;;;;;;;;;;45.57;6.96;97542.34;10459993;28;20040;-79
2021/04/21 08:57:48;;;;;;;8.77;6.60;;;;;;;46.50;7.47;97531.31;10452225;28;19990;-79
2021/04/21 09:03:08;;;;;;;7.53;5.53;;;;;;;47.62;6.63;97539.00;10449860;28;20044;-79
2021/04/21 09:08:30;;;;;;;8.43;4.90;;;;;;;49.28;5.81;97543.44;10463120;28;20041;-79
2021/04/21 09:13:51;;;;;;;8.82;5.47;;;;;;;51.10;4.30;97532.56;10463084;28;20484;-79
2021/04/21 09:19:15;;;;;;;10.07;5.13;;;;;;;51.29;4.01;97534.38;10462512;28;20057;-79
2021/04/21 09:24:37;;;;;;;7.90;5.30;;;;;;;45.57;6.02;97521.72;10462669;28;20126;-79
2021/04/21 09:30:20;;;;;;;6.75;5.15;;;;;;;43.47;6.32;97509.13;10435100;28;20110;-78
2021/04/21 09:35:43;;;;;;;9.18;5.40;;;;;;;42.84;7.82;97511.78;10462531;28;20041;-79
2021/04/21 09:41:18;;;;;;;7.70;4.68;;;;;;;42.41;8.02;97510.94;10462255;28;20499;-75
2021/04/21 09:46:39;;;;;;;9.93;4.82;;;;;;;39.65;9.03;97495.63;10461844;28;20045;-78
2021/04/21 09:52:12;;;;;;;6.80;5.05;;;;;;;46.47;6.31;97499.88;10464458;28;20040;-77
2021/04/21 09:57:34;;;;;;;9.18;4.68;;;;;;;46.18;5.12;97489.69;10461757;28;20041;-73
2021/04/21 10:02:55;;;;;;;8.80;4.78;;;;;;;37.05;8.38;97491.84;10459981;28;20075;-79
2021/04/21 10:08:25;;;;;;;8.05;5.43;;;;;;;31.01;12.30;97490.88;10461070;28;20056;-78
2021/04/21 10:13:51;;;;;;;10.80;4.95;;;;;;;26.93;17.53;97513.16;10460854;28;20041;-79
2021/04/21 10:19:11;;;;;;;12.23;2.80;;;;;;;23.94;18.91;97512.22;10460846;28;20057;-79
2021/04/21 10:24:32;;;;;;;7.30;3.08;;;;;;;21.37;22.95;97507.25;10459926;28;20052;-86
2021/04/21 10:29:54;;;;;;;6.97;3.50;;;;;;;19.95;23.93;97515.09;10496419;28;20025;-90
2021/04/21 10:35:14;;;;;;;10.27;3.40;;;;;;;19.49;25.37;97501.06;10450008;28;20053;-91
2021/04/21 10:40:35;;;;;;;10.32;3.95;;;;;;;20.42;26.10;97485.16;10460482;28;20045;-90
2021/04/21 10:45:57;;;;;;;6.80;3.40;;;;;;;20.76;25.58;97483.19;10446543;28;20446;-93
2021/04/21 10:51:46;;;;;;;6.82;3.50;;;;;;;20.13;26.71;97473.09;10460278;28;20129;-89
2021/04/21 10:57:55;;;;;;;7.60;3.65;;;;;;;20.10;27.64;97474.44;10448840;28;20056;-92
2021/04/21 11:03:26;;;;;;;9.52;3.60;;;;;;;21.38;27.46;97471.06;10446884;28;20045;-89
2021/04/21 11:08:54;;;;;;;8.77;3.97;;;;;;;23.54;27.25;97458.28;10463205;28;20037;-95
2021/04/21 11:14:48;;;;;;;9.55;3.58;;;;;;;25.20;25.22;97455.50;10478073;28;20035;-94
2021/04/21 11:20:42;;;;;;;9.13;3.88;;;;;;;25.50;23.64;97445.66;10492453;28;20051;-92
2021/04/21 11:26:27;;;;;;;8.80;4.80;;;;;;;26.29;22.91;97440.13;10266773;28;20129;-87
2021/04/21 11:31:50;;;;;;;8.20;4.75;;;;;;;26.29;22.10;97436.56;10241544;29;20106;-87
2021/04/21 11:37:18;;;;;;;8.32;4.00;;;;;;;26.55;22.14;97444.47;10241180;29;20399;-87
2021/04/21 11:42:44;;;;;;;9.50;3.60;;;;;;;26.27;21.13;97437.28;10214519;29;20054;-87
2021/04/21 11:48:05;;;;;;;8.00;3.75;;;;;;;26.28;21.06;97429.41;10214907;29;20047;-85
2021/04/21 11:53:26;;;;;;;6.95;3.83;;;;;;;26.16;20.66;97432.97;10240574;29;20044;-88
2021/04/21 11:58:49;;;;;;;10.50;3.40;;;;;;;25.33;20.53;97431.28;10214422;29;20047;-87
2021/04/21 12:04:11;;;;;;;6.70;3.42;;;;;;;24.22;20.90;97431.94;10213833;29;20047;-87
2021/04/21 12:09:35;;;;;;;7.65;4.15;;;;;;;23.12;21.26;97430.72;10227140;28;20054;-87
2021/04/21 12:15:08;;;;;;;11.07;4.65;;;;;;;22.08;23.09;97416.31;10213372;29;20043;-87
2021/04/21 12:20:29;;;;;;;7.13;3.90;;;;;;;21.51;22.89;97415.25;10213521;29;20055;-87
2021/04/21 12:25:50;;;;;;;6.82;4.18;;;;;;;21.67;23.38;97412.72;10213150;29;20110;-87
2021/04/21 12:31:10;;;;;;;10.40;4.70;;;;;;;22.48;22.91;97404.88;10239455;29;20043;-88
2021/04/21 12:36:32;;;;;;;7.75;3.97;;;;;;;22.52;22.94;97408.50;10213006;29;20126;-80
2021/04/21 12:41:55;;;;;;;9.15;3.45;;;;;;;22.68;22.68;97402.34;10252752;29;20078;-79
2021/04/21 12:47:15;;;;;;;4.93;2.55;;;;;;;22.53;22.93;97392.88;10252545;29;20442;-79
2021/04/21 12:52:38;;;;;;;6.30;3.42;;;;;;;22.55;22.87;97378.69;10226411;29;20055;-79
2021/04/21 12:57:58;;;;;;;5.85;2.85;;;;;;;22.18;23.22;97382.38;10213180;29;20048;-79
2021/04/21 13:03:20;;;;;;;6.57;3.25;;;;;;;22.30;22.93;97379.72;10212580;29;20047;-79
2021/04/21 13:08:41;;;;;;;5.88;2.60;;;;;;;22.78;22.65;97382.56;10226167;29;20043;-80
2021/04/21 13:14:03;;;;;;;4.68;2.95;;;;;;;22.81;22.87;97389.72;10225046;29;20058;-81
2021/04/21 13:19:27;;;;;;;7.53;3.22;;;;;;;22.16;22.85;97377.38;10212271;29;20194;-77
2021/04/21 13:24:52;;;;;;;5.00;3.05;;;;;;;21.63;23.46;97384.25;10225544;29;20054;-76
2021/04/21 13:30:15;;;;;;;9.40;3.83;;;;;;;21.30;23.44;97383.63;10238453;29;20076;-75
2021/04/21 13:35:35;;;;;;;8.18;4.22;;;;;;;20.97;24.04;97392.84;10252262;28;20051;-77
2021/04/21 13:40:55;;;;;;;7.97;2.97;;;;;;;20.42;25.05;97400.81;10232187;29;20495;-76
2021/04/21 13:46:16;;;;;;;13.80;3.20;;;;;;;19.14;29.10;97395.38;10245303;29;20047;-75
2021/04/21 13:51:36;;;;;;;5.80;2.63;;;;;;;18.06;28.32;97370.88;10244984;29;20043;-76
2021/04/21 13:56:57;;;;;;;5.20;2.45;;;;;;;18.32;28.35;97357.56;10244871;29;20043;-76
2021/04/21 14:02:17;;;;;;;5.40;2.78;;;;;;;19.25;29.38;97364.53;10244617;29;20051;-75
2021/04/21 14:07:37;;;;;;;5.32;2.35;;;;;;;19.40;28.39;97357.91;10244508;29;20051;-76
2021/04/21 14:12:58;;;;;;;3.97;2.10;;;;;;;19.35;28.25;97362.00;10244074;29;20051;-77
2021/04/21 14:18:21;;;;;;;;;;;;;;;18.98;28.50;97360.97;10232007;29;20447;-78
2021/04/21 14:23:41;;;;;;;6.22;2.30;;;;;;;18.62;28.77;97352.13;10243903;29;19922;-78
2021/04/21 14:29:03;;;;;;;5.30;2.28;;;;;;;18.59;28.93;97351.34;10217150;29;20054;-79
2021/04/21 14:34:23;;;;;;;5.93;2.60;;;;;;;18.34;28.93;97366.13;10217072;29;20475;-79
2021/04/21 14:39:43;;;;;;;8.15;3.00;;;;;;;18.17;29.72;97352.88;10243154;29;20043;-80
2021/04/21 14:45:06;;;;;;;5.50;3.15;;;;;;;17.96;29.56;97357.88;10243015;29;20395;-79
2021/04/21 14:50:27;;;;;;;9.27;3.50;;;;;;;17.37;30.83;97364.34;10255843;28;20050;-78
2021/04/21 14:55:48;;;;;;;4.82;2.58;;;;;;;16.96;31.40;97352.97;10216262;29;20050;-79
2021/04/21 15:01:08;;;;;;;5.72;2.35;;;;;;;17.07;31.64;97347.03;10242428;29;20058;-79
2021/04/21 15:06:30;;;;;;;4.00;2.28;;;;;;;17.67;30.74;97347.00;10242457;29;20040;-79
2021/04/21 15:11:52;;;;;;;4.65;2.20;;;;;;;18.48;29.83;97341.13;10242280;29;20047;-79
2021/04/21 15:17:15;;;;;;;3.30;2.10;;;;;;;18.48;29.69;97341.13;10228429;29;20047;-78
2021/04/21 15:22:36;;;;;;;8.30;1.83;;;;;;;18.38;29.50;97342.91;10241672;29;20059;-75
2021/04/21 15:27:56;;;;;;;6.53;2.60;;;;;;;18.19;29.37;97335.97;10227952;29;20050;-76
2021/04/21 15:33:16;;;;;;;4.40;2.08;;;;;;;17.84;29.99;97343.34;10241168;29;20090;-77
2021/04/21 15:38:36;;;;;;;2.83;1.73;;;;;;;17.28;30.30;97337.22;10254174;29;20051;-75
2021/04/21 15:43:57;;;;;;;7.32;2.05;;;;;;;17.04;30.71;97339.88;10240772;29;20396;-74
2021/04/21 15:49:21;;;;;;;4.07;2.15;;;;;;;16.70;31.80;97347.84;10240648;29;20102;-76
2021/04/21 15:54:44;;;;;;;6.50;2.30;;;;;;;16.39;32.65;97343.09;10241223;29;20043;-77
2021/04/21 16:00:08;;;;;;;4.18;1.75;;;;;;;16.38;32.93;97349.38;10240844;28;20094;-77
2021/04/21 16:05:33;;;;;;;5.05;2.38;;;;;;;16.28;34.69;97358.88;10230737;29;20055;-79
2021/04/21 16:10:53;;;;;;;3.67;2.38;;;;;;;16.01;35.05;97359.19;10231766;29;20051;-77
2021/04/21 16:16:14;;;;;;;8.68;2.63;;;;;;;15.91;34.69;97358.78;10219087;29;20054;-74
2021/04/21 16:21:34;;;;;;;4.38;2.45;;;;;;;15.92;34.91;97363.06;10243449;29;20086;-76
2021/04/21 16:26:55;;;;;;;7.55;2.50;;;;;;;16.01;35.55;97359.19;10243221;29;20564;-78
2021/04/21 16:32:16;;;;;;;7.03;2.65;;;;;;;16.06;35.42;97363.63;10242529;29;20106;-76
2021/04/21 16:37:37;;;;;;;7.68;3.05;;;;;;;15.84;36.89;97365.56;10240377;29;20191;-76
2021/04/21 16:42:57;;;;;;;6.75;3.10;;;;;;;15.62;36.70;97366.06;10228020;29;20483;-80
2021/04/21 16:48:18;;;;;;;4.65;2.72;;;;;;;15.44;36.81;97365.25;10241541;29;20070;-78
2021/04/21 16:53:39;;;;;;;5.65;2.72;;;;;;;15.34;36.88;97364.84;10240845;29;20047;-76
2021/04/21 16:58:59;;;;;;;6.70;3.38;;;;;;;15.25;37.18;97360.22;10254085;29;20050;-78
2021/04/21 17:04:19;;;;;;;9.48;2.83;;;;;;;15.26;37.83;97375.75;10240509;29;20499;-79
2021/04/21 17:09:39;;;;;;;5.72;3.65;;;;;;;15.24;38.50;97373.56;10228942;28;20129;-80
2021/04/21 17:15:06;;;;;;;8.32;3.72;;;;;;;15.41;38.41;97381.34;10247922;29;20051;-78
2021/04/21 17:20:29;;;;;;;5.90;3.03;;;;;;;15.60;38.12;97382.13;10248323;29;20376;-79
2021/04/21 17:25:50;;;;;;;3.92;2.50;;;;;;;15.88;37.64;97386.13;10248293;29;20090;-80
2021/04/21 17:31:12;;;;;;;5.93;2.70;;;;;;;16.29;37.11;97385.66;10246953;29;20051;-76
2021/04/21 17:36:32;;;;;;;6.38;3.20;;;;;;;16.38;39.04;97403.63;10246919;29;20039;-77
2021/04/21 17:41:53;;;;;;;6.10;2.88;;;;;;;16.19;37.60;97407.06;10247197;29;20047;-76
2021/04/21 17:47:17;;;;;;;5.38;2.90;;;;;;;15.97;37.69;97406.91;10247510;29;20151;-76
2021/04/21 17:52:37;;;;;;;;;;;;;;;15.53;38.83;97417.69;10234094;29;20054;-76
2021/04/21 17:57:57;;;;;;;5.85;3.15;;;;;;;15.13;38.32;97425.09;10272531;28;19973;-76
2021/04/21 18:03:19;;;;;;;9.10;3.75;;;;;;;14.69;39.19;97429.41;10260766;29;20043;-77
2021/04/21 18:08:40;;;;;;;6.28;3.33;;;;;;;14.20;39.49;97433.44;10245793;29;20055;-75
2021/04/21 18:14:05;;;;;;;5.90;2.97;;;;;;;13.88;39.84;97438.16;10245804;29;20079;-78
2021/04/21 18:19:25;;;;;;;4.93;3.40;;;;;;;13.61;40.32;97449.44;10244952;29;20514;-75
2021/04/21 18:24:46;;;;;;;7.35;3.72;;;;;;;13.40;40.56;97445.56;10229951;29;20051;-75
2021/04/21 18:30:09;;;;;;;6.10;3.50;;;;;;;13.16;40.63;97455.50;10230887;29;20062;-76
2021/04/21 18:35:29;;;;;;;6.43;3.20;;;;;;;13.01;41.11;97467.28;10217586;29;20043;-75
2021/04/21 18:40:49;;;;;;;9.63;3.60;;;;;;;12.92;41.46;97465.41;10245146;29;20043;-74
2021/04/21 18:46:10;;;;;;;4.53;3.40;;;;;;;12.79;41.63;97469.63;10243390;29;20047;-75
2021/04/21 18:51:35;;;;;;;6.07;3.60;;;;;;;12.64;41.87;97464.56;10243086;29;20047;-75
2021/04/21 18:56:56;;;;;;;6.22;3.47;;;;;;;12.48;42.27;97467.97;10234527;29;20044;-77
2021/04/21 19:02:16;;;;;;;5.80;3.55;;;;;;;12.37;42.57;97465.22;10190094;29;20396;-75
2021/04/21 19:07:37;;;;;;;9.40;3.78;;;;;;;12.22;42.58;97472.78;10205296;29;20043;-79
2021/04/21 19:12:58;;;;;;;7.60;4.28;;;;;;;12.10;43.24;97476.97;10235524;29;20406;-78
2021/04/21 19:18:18;;;;;;;6.90;4.63;;;;;;;11.95;43.39;97483.81;10230420;29;20044;-75
2021/04/21 19:23:43;;;;;;;7.80;4.22;;;;;;;11.86;43.98;97487.47;10215022;29;20110;-75
2021/04/21 19:29:06;;;;;;;6.53;3.83;;;;;;;11.68;44.19;97485.06;10242241;29;20051;-75
2021/04/21 19:34:27;;;;;;;7.05;4.63;;;;;;;11.61;44.59;97494.44;10227126;28;20447;-75
2021/04/21 19:39:48;;;;;;;9.30;5.00;;;;;;;11.47;44.84;97499.88;10215337;29;20043;-76
2021/04/21 19:45:11;;;;;;;9.02;5.97;;;;;;;11.32;44.90;97505.25;10214683;29;20047;-76
2021/04/21 19:50:32;;;;;;;11.83;7.03;;;;;;;11.25;45.67;97506.19;10228794;29;20475;-75
2021/04/21 19:55:53;;;;;;;13.90;7.07;;;;;;;11.19;45.72;97500.97;10241508;29;20043;-76
2021/04/21 20:01:13;;;;;;;8.75;6.47;;;;;;;11.13;45.63;97515.31;10254612;29;20050;-76
2021/04/21 20:06:34;;;;;;;15.48;9.18;;;;;;;11.13;45.93;97512.50;10228032;29;20043;-76
2021/04/21 20:11:54;;;;;;;13.68;7.25;;;;;;;11.12;45.37;97513.13;10240473;29;20395;-75
2021/04/21 20:17:15;;;;;;;8.70;6.35;;;;;;;11.10;45.58;97508.13;10241645;29;20050;-76
2021/04/21 20:22:36;;;;;;;12.70;6.63;;;;;;;11.08;45.37;97516.38;10240802;29;20055;-76
2021/04/21 20:27:56;;;;;;;17.05;8.70;;;;;;;11.04;45.18;97524.50;10240095;29;20047;-75
2021/04/21 20:33:17;;;;;;;13.10;8.10;;;;;;;10.94;45.36;97523.88;10214318;29;20050;-75
2021/04/21 20:38:38;;;;;;;10.68;7.75;;;;;;;10.89;45.14;97522.16;10214675;29;20047;-75
2021/04/21 20:43:59;;;;;;;14.63;7.80;;;;;;;10.82;45.30;97523.13;10227630;28;20098;-75
2021/04/21 20:49:20;;;;;;;9.98;6.70;;;;;;;10.74;45.22;97528.94;10262453;29;20383;-76
2021/04/21 20:54:40;;;;;;;10.55;7.15;;;;;;;10.60;45.21;97522.44;10222211;29;20091;-76
2021/04/21 21:00:05;;;;;;;10.85;6.20;;;;;;;10.50;45.10;97527.38;10249495;29;20411;-76
2021/04/21 21:05:26;;;;;;;11.90;7.55;;;;;;;10.37;45.30;97520.28;10234630;29;20051;-76
2021/04/21 21:10:47;;;;;;;12.05;7.32;;;;;;;10.31;45.15;97528.25;10221593;29;20047;-76
2021/04/21 21:16:07;;;;;;;10.23;7.13;;;;;;;10.24;45.38;97529.22;10234124;29;20379;-76
2021/04/21 21:21:28;;;;;;;14.18;7.65;;;;;;;10.19;45.84;97533.75;10247135;29;20067;-76
2021/04/21 21:26:48;;;;;;;9.00;7.40;;;;;;;10.14;45.76;97525.72;10221251;29;20411;-76
2021/04/21 21:32:09;;;;;;;9.60;7.10;;;;;;;10.08;45.85;97534.41;10247116;29;20486;-77
2021/04/21 21:37:29;;;;;;;9.10;5.53;;;;;;;10.04;46.17;97518.16;10233173;29;20047;-76
2021/04/21 21:42:49;;;;;;;9.77;5.43;;;;;;;10.07;46.12;97527.38;10246032;29;20047;-76
2021/04/21 21:48:10;;;;;;;9.63;5.47;;;;;;;10.07;46.66;97521.06;10246222;29;20098;-76
2021/04/21 21:53:36;;;;;;;5.75;4.07;;;;;;;10.06;47.04;97520.34;10232642;29;20048;-76
2021/04/21 21:58:57;;;;;;;7.07;4.47;;;;;;;10.04;47.30;97523.00;10218313;29;20043;-76
2021/04/21 22:04:17;;;;;;;11.57;5.22;;;;;;;10.03;47.20;97529.88;10245081;29;20562;-76
2021/04/21 22:09:39;;;;;;;7.25;4.95;;;;;;;10.11;47.77;97535.28;10245208;29;20058;-76
2021/04/21 22:14:59;;;;;;;6.75;4.55;;;;;;;10.15;48.52;97541.84;10232059;29;20050;-77
2021/04/21 22:20:20;;;;;;;6.60;3.75;;;;;;;10.12;48.92;97536.72;10244516;29;20062;-76
2021/04/21 22:25:41;;;;;;;7.07;4.28;;;;;;;10.10;48.90;97536.59;10244645;29;20055;-76
2021/04/21 22:31:01;;;;;;;10.18;4.70;;;;;;;10.10;49.39;97542.91;10230927;29;20043;-75
2021/04/21 22:36:22;;;;;;;5.80;4.13;;;;;;;10.06;49.68;97553.81;10230929;29;20043;-75
2021/04/21 22:41:42;;;;;;;8.10;4.60;;;;;;;10.02;50.23;97554.25;10217282;29;20039;-77
2021/04/21 22:47:03;;;;;;;8.98;4.57;;;;;;;9.92;51.07;97556.38;10243757;29;20047;-76
2021/04/21 22:52:23;;;;;;;10.48;4.55;;;;;;;9.91;50.70;97559.75;10243244;29;20055;-76
2021/04/21 22:57:44;;;;;;;9.52;4.28;;;;;;;9.92;51.00;97570.31;10242977;29;20055;-76
2021/04/21 23:03:04;;;;;;;6.57;4.32;;;;;;;9.86;51.63;97564.34;10242783;29;20051;-77
2021/04/21 23:08:25;;;;;;;8.68;4.80;;;;;;;9.74;52.46;97569.81;10216052;28;20039;-76
2021/04/21 23:13:45;;;;;;;9.60;5.35;;;;;;;9.60;52.36;97560.50;10229190;29;20043;-75
2021/04/21 23:19:06;;;;;;;7.72;4.90;;;;;;;9.52;52.75;97562.00;10242248;29;20047;-76
2021/04/21 23:24:27;;;;;;;7.25;5.05;;;;;;;9.46;52.92;97562.31;10215474;29;20075;-77
2021/04/21 23:29:47;;;;;;;8.52;5.07;;;;;;;9.39;52.57;97566.00;10241817;29;20106;-76
2021/04/21 23:35:09;;;;;;;8.27;4.72;;;;;;;9.36;53.07;97569.97;10241687;29;20046;-76
2021/04/21 23:40:29;;;;;;;7.90;5.03;;;;;;;9.29;53.26;97570.88;10228362;29;20071;-76
2021/04/21 23:45:49;;;;;;;7.22;4.85;;;;;;;9.18;53.42;97581.31;10214826;29;20101;-76
2021/04/21 23:51:10;;;;;;;8.38;5.28;;;;;;;9.07;53.42;97578.38;10241466;29;20106;-75
2021/04/21 23:56:30;;;;;;;8.20;5.10;;;;;;;9.02;54.15;97587.78;10214566;29;20479;-76
